createdAt,value
2018-12-05T00:01:31.110Z,3.50
2018-12-05T00:04:00.371Z,3.53
2018-12-05T00:06:29.366Z,3.13
2018-12-05T00:08:58.327Z,3.20
2018-12-05T00:11:27.670Z,3.00
2018-12-05T00:13:57.728Z,3.40
2018-12-05T00:16:26.685Z,3.03
2018-12-05T00:18:55.963Z,3.50
2018-12-05T00:21:24.994Z,3.30
2018-12-05T00:23:54.017Z,3.40
2018-12-05T00:26:23.321Z,3.27
2018-12-05T00:28:52.309Z,5.20
2018-12-05T00:31:21.312Z,3.90
2018-12-05T00:33:50.255Z,3.30
2018-12-05T00:36:19.452Z,3.67
2018-12-05T00:38:48.399Z,3.67
2018-12-05T00:41:17.283Z,4.03
2018-12-05T00:43:46.583Z,3.73
2018-12-05T00:46:15.599Z,3.40
2018-12-05T00:48:44.693Z,3.07
2018-12-05T00:51:13.972Z,3.37
2018-12-05T00:53:42.893Z,3.23
2018-12-05T00:56:11.898Z,3.63
2018-12-05T00:58:41.109Z,3.00
2018-12-05T01:01:10.254Z,4.03
2018-12-05T01:03:39.439Z,3.50
2018-12-05T01:06:08.640Z,3.77
2018-12-05T01:08:37.834Z,3.03
2018-12-05T01:11:06.968Z,3.10
2018-12-05T01:13:36.076Z,3.47
2018-12-05T01:16:05.742Z,3.67
2018-12-05T01:18:34.842Z,3.23
2018-12-05T01:21:04.184Z,3.97
2018-12-05T01:23:33.422Z,3.43
2018-12-05T01:26:02.542Z,3.70
2018-12-05T01:28:31.557Z,3.50
2018-12-05T01:31:00.575Z,3.93
2018-12-05T01:33:29.734Z,3.33
2018-12-05T01:35:58.774Z,3.63
2018-12-05T01:38:29.124Z,3.67
2018-12-05T01:40:58.228Z,3.30
2018-12-05T01:43:31.654Z,2.90
2018-12-05T01:46:00.701Z,2.80
2018-12-05T01:48:29.712Z,3.37
2018-12-05T01:50:58.646Z,2.90
2018-12-05T01:53:28.122Z,2.97
2018-12-05T01:55:57.261Z,3.77
2018-12-05T01:58:26.210Z,2.87
2018-12-05T02:00:55.605Z,3.20
2018-12-05T02:03:24.612Z,3.00
2018-12-05T02:05:53.568Z,3.47
2018-12-05T02:08:22.582Z,3.83
2018-12-05T02:10:52.083Z,3.37
2018-12-05T02:13:21.102Z,3.80
2018-12-05T02:15:50.310Z,3.80
2018-12-05T02:18:19.386Z,4.10
2018-12-05T02:20:48.312Z,4.50
2018-12-05T02:23:17.287Z,4.47
2018-12-05T02:25:46.787Z,3.93
2018-12-05T02:28:15.764Z,4.07
2018-12-05T02:30:44.793Z,3.30
2018-12-05T02:33:13.885Z,3.77
2018-12-05T02:35:42.942Z,4.57
2018-12-05T02:38:12.216Z,4.30
2018-12-05T02:40:41.716Z,4.70
2018-12-05T02:43:10.674Z,4.80
2018-12-05T02:45:40.703Z,4.93
2018-12-05T02:48:09.692Z,4.57
2018-12-05T02:50:39.110Z,4.40
2018-12-05T02:53:08.096Z,4.00
2018-12-05T02:55:37.073Z,5.00
2018-12-05T02:58:06.089Z,4.73
2018-12-05T03:00:35.058Z,4.73
2018-12-05T03:03:04.090Z,4.67
2018-12-05T03:05:33.027Z,4.70
2018-12-05T03:08:01.988Z,4.33
2018-12-05T03:10:31.025Z,4.03
2018-12-05T03:12:59.983Z,4.03
2018-12-05T03:15:29.529Z,4.43
2018-12-05T03:17:58.462Z,4.93
2018-12-05T03:20:27.413Z,3.90
2018-12-05T03:22:56.308Z,3.97
2018-12-05T03:25:25.402Z,4.37
2018-12-05T03:27:54.671Z,4.40
2018-12-05T03:30:23.659Z,4.40
2018-12-05T03:32:53.229Z,4.33
2018-12-05T03:35:26.765Z,4.00
2018-12-05T03:37:56.298Z,4.73
2018-12-05T03:40:25.258Z,4.47
2018-12-05T03:42:54.209Z,5.50
2018-12-05T03:45:23.176Z,6.83
2018-12-05T03:47:52.241Z,7.00
2018-12-05T03:50:21.287Z,6.40
2018-12-05T03:52:50.503Z,6.97
2018-12-05T03:55:20.226Z,6.83
2018-12-05T03:57:49.445Z,6.73
2018-12-05T04:00:18.602Z,6.97
2018-12-05T04:02:47.568Z,5.90
2018-12-05T04:05:16.605Z,6.67
2018-12-05T04:07:45.502Z,6.30
2018-12-05T04:10:14.471Z,5.77
2018-12-05T04:12:43.389Z,5.83
2018-12-05T04:15:12.402Z,5.70
2018-12-05T04:17:41.461Z,6.00
2018-12-05T04:20:10.519Z,4.90
2018-12-05T04:22:39.414Z,4.50
2018-12-05T04:25:08.420Z,4.87
2018-12-05T04:27:37.480Z,4.60
2018-12-05T04:30:06.751Z,5.07
2018-12-05T04:32:35.906Z,5.70
2018-12-05T04:35:04.928Z,6.03
2018-12-05T04:37:33.882Z,6.67
2018-12-05T04:40:03.266Z,6.20
2018-12-05T04:42:32.434Z,5.60
2018-12-05T04:45:03.464Z,5.80
2018-12-05T04:47:32.396Z,5.60
2018-12-05T04:50:01.370Z,5.90
2018-12-05T04:52:30.352Z,5.20
2018-12-05T04:54:59.318Z,5.63
2018-12-05T04:57:28.294Z,5.77
2018-12-05T04:59:57.307Z,5.87
2018-12-05T05:02:26.261Z,5.00
2018-12-05T05:04:55.779Z,4.70
2018-12-05T05:07:24.695Z,4.60
2018-12-05T05:09:53.683Z,4.90
2018-12-05T05:12:22.866Z,4.60
2018-12-05T05:14:51.855Z,4.70
2018-12-05T05:17:20.946Z,4.70
2018-12-05T05:19:49.923Z,5.43
2018-12-05T05:22:18.933Z,4.77
2018-12-05T05:24:48.294Z,4.90
2018-12-05T05:27:17.237Z,4.73
2018-12-05T05:29:46.331Z,6.00
2018-12-05T05:32:15.416Z,5.60
2018-12-05T05:34:44.500Z,5.20
2018-12-05T05:37:13.787Z,5.43
2018-12-05T05:39:42.937Z,5.13
2018-12-05T05:42:11.980Z,5.70
2018-12-05T05:44:41.012Z,5.60
2018-12-05T05:47:10.443Z,5.97
2018-12-05T05:49:39.469Z,6.65
2018-12-05T05:52:08.399Z,6.80
2018-12-05T05:54:37.471Z,5.37
2018-12-05T05:57:06.824Z,6.27
2018-12-05T05:59:35.718Z,9.10
2018-12-05T06:02:04.702Z,8.30
2018-12-05T06:04:33.905Z,8.47
2018-12-05T06:07:04.046Z,7.13
2018-12-05T06:09:32.955Z,6.67
2018-12-05T06:12:01.972Z,6.73
2018-12-05T06:14:30.847Z,5.10
2018-12-05T06:16:59.800Z,5.17
2018-12-05T06:19:28.811Z,5.63
2018-12-05T06:21:57.777Z,6.63
2018-12-05T06:24:27.386Z,7.97
2018-12-05T06:26:56.581Z,10.20
2018-12-05T06:29:25.587Z,30.90
2018-12-05T06:31:54.751Z,18.48
2018-12-05T06:34:23.822Z,11.95
2018-12-05T06:36:53.177Z,7.78
2018-12-05T06:39:22.195Z,9.23
2018-12-05T06:41:51.141Z,7.17
2018-12-05T06:44:20.156Z,7.90
2018-12-05T06:46:49.179Z,8.43
2018-12-05T06:49:18.119Z,7.53
2018-12-05T06:51:47.063Z,6.33
2018-12-05T06:54:16.068Z,7.23
2018-12-05T06:56:45.036Z,6.67
2018-12-05T06:59:14.109Z,6.93
2018-12-05T07:01:43.121Z,6.87
2018-12-05T07:04:12.099Z,11.93
2018-12-05T07:06:41.282Z,8.87
2018-12-05T07:09:10.434Z,8.20
2018-12-05T07:11:39.652Z,8.27
2018-12-05T07:14:09.700Z,10.33
2018-12-05T07:16:38.729Z,17.30
2018-12-05T07:19:08.031Z,12.30
2018-12-05T07:21:37.255Z,10.40
2018-12-05T07:24:06.422Z,10.57
2018-12-05T07:26:35.472Z,9.83
2018-12-05T07:29:04.602Z,8.53
2018-12-05T07:31:33.839Z,8.67
2018-12-05T07:34:02.862Z,8.13
2018-12-05T07:36:31.775Z,8.13
2018-12-05T07:39:00.761Z,34.18
2018-12-05T07:41:29.789Z,18.03
2018-12-05T07:43:58.839Z,11.67
2018-12-05T07:46:28.126Z,11.10
2018-12-05T07:48:57.122Z,9.73
2018-12-05T07:51:26.031Z,10.48
2018-12-05T07:53:55.071Z,9.73
2018-12-05T07:56:25.127Z,9.67
2018-12-05T07:58:54.130Z,10.13
2018-12-05T08:01:23.096Z,10.00
2018-12-05T08:03:52.010Z,9.47
2018-12-05T08:06:21.310Z,10.00
2018-12-05T08:08:50.216Z,9.53
2018-12-05T08:11:19.242Z,10.97
2018-12-05T08:13:48.227Z,12.80
2018-12-05T08:16:17.446Z,14.13
2018-12-05T08:18:46.627Z,14.30
2018-12-05T08:21:15.588Z,17.13
2018-12-05T08:23:44.719Z,16.57
2018-12-05T08:26:13.867Z,14.87
2018-12-05T08:28:42.868Z,14.40
2018-12-05T08:31:12.567Z,13.07
2018-12-05T08:33:41.916Z,13.27
2018-12-05T08:36:10.973Z,14.87
2018-12-05T08:38:39.911Z,17.93
2018-12-05T08:41:09.547Z,15.13
2018-12-05T08:43:38.426Z,15.80
2018-12-05T08:46:07.374Z,15.90
2018-12-05T08:48:36.723Z,15.23
2018-12-05T08:51:05.689Z,14.70
2018-12-05T08:53:36.518Z,13.37
2018-12-05T08:56:05.528Z,14.77
2018-12-05T08:58:34.461Z,14.27
2018-12-05T09:01:03.504Z,15.37
2018-12-05T09:03:32.456Z,16.03
2018-12-05T09:06:01.638Z,17.53
2018-12-05T09:08:30.560Z,17.23
2018-12-05T09:10:59.623Z,16.30
2018-12-05T09:13:28.673Z,16.80
2018-12-05T09:15:57.689Z,16.97
2018-12-05T09:18:28.043Z,17.27
2018-12-05T09:20:57.091Z,17.47
2018-12-05T09:23:26.070Z,17.47
2018-12-05T09:25:55.077Z,16.57
2018-12-05T09:28:24.017Z,16.60
2018-12-05T09:30:53.022Z,17.73
2018-12-05T09:33:22.296Z,18.30
2018-12-05T09:35:51.237Z,17.27
2018-12-05T09:38:20.298Z,17.30
2018-12-05T09:40:49.216Z,17.37
2018-12-05T09:43:18.252Z,18.00
2018-12-05T09:45:47.190Z,19.00
2018-12-05T09:48:16.156Z,16.97
2018-12-05T09:50:45.198Z,17.10
2018-12-05T09:53:14.210Z,16.77
2018-12-05T09:55:43.276Z,17.00
2018-12-05T09:58:12.733Z,17.57
2018-12-05T10:00:41.845Z,17.07
2018-12-05T10:03:11.623Z,16.87
2018-12-05T10:05:41.045Z,16.97
2018-12-05T10:08:10.000Z,16.30
2018-12-05T10:10:38.989Z,18.23
2018-12-05T10:13:07.917Z,15.23
2018-12-05T10:15:37.002Z,15.57
2018-12-05T10:18:05.960Z,14.93
2018-12-05T10:20:35.406Z,16.10
2018-12-05T10:23:04.361Z,15.90
2018-12-05T10:25:33.235Z,16.43
2018-12-05T10:28:02.599Z,15.70
2018-12-05T10:30:31.619Z,13.93
2018-12-05T10:33:00.598Z,14.10
2018-12-05T10:35:29.471Z,13.40
2018-12-05T10:37:58.577Z,13.03
2018-12-05T10:40:27.733Z,11.33
2018-12-05T10:42:56.686Z,11.10
2018-12-05T10:45:26.258Z,11.63
2018-12-05T10:47:55.230Z,11.57
2018-12-05T10:50:24.443Z,11.67
2018-12-05T10:52:53.450Z,10.30
2018-12-05T10:55:22.658Z,10.77
2018-12-05T10:57:51.674Z,10.03
2018-12-05T11:00:25.176Z,10.00
2018-12-05T11:03:00.907Z,8.93
2018-12-05T11:05:35.376Z,10.17
2018-12-05T11:08:09.956Z,9.33
2018-12-05T11:10:45.016Z,8.93
2018-12-05T11:13:19.658Z,9.13
2018-12-05T11:15:54.799Z,8.93
2018-12-05T11:18:29.339Z,9.53
2018-12-05T11:21:04.020Z,8.30
2018-12-05T11:23:38.698Z,9.47
2018-12-05T11:26:12.037Z,8.43
2018-12-05T11:28:41.350Z,7.07
2018-12-05T11:31:10.414Z,8.23
2018-12-05T11:33:39.472Z,8.43
2018-12-05T11:36:08.768Z,8.20
2018-12-05T11:38:37.673Z,7.30
2018-12-05T11:41:06.648Z,7.43
2018-12-05T11:43:36.351Z,7.40
2018-12-05T11:46:05.376Z,7.77
2018-12-05T11:48:34.533Z,7.70
2018-12-05T11:51:03.463Z,9.33
2018-12-05T11:53:32.339Z,7.57
2018-12-05T11:56:01.328Z,7.40
2018-12-05T11:58:30.410Z,8.80
2018-12-05T12:00:59.533Z,8.37
2018-12-05T12:03:28.571Z,7.30
2018-12-05T12:05:57.552Z,7.27
2018-12-05T12:08:26.483Z,7.13
2018-12-05T12:10:55.548Z,7.03
2018-12-05T12:13:25.046Z,7.20
2018-12-05T12:15:54.163Z,7.33
2018-12-05T12:18:23.327Z,6.87
2018-12-05T12:20:52.551Z,7.70
2018-12-05T12:23:21.960Z,7.67
2018-12-05T12:25:50.887Z,7.23
2018-12-05T12:28:19.846Z,7.00
2018-12-05T12:30:48.855Z,6.70
2018-12-05T12:33:17.863Z,7.37
2018-12-05T12:35:46.852Z,6.67
2018-12-05T12:38:15.761Z,7.00
2018-12-05T12:40:44.746Z,7.37
2018-12-05T12:43:13.981Z,7.77
2018-12-05T12:45:43.202Z,8.00
2018-12-05T12:48:12.302Z,8.30
2018-12-05T12:50:43.673Z,7.90
2018-12-05T12:53:12.766Z,7.40
2018-12-05T12:55:41.715Z,7.30
2018-12-05T12:58:10.618Z,7.00
2018-12-05T13:00:39.744Z,7.20
2018-12-05T13:03:09.697Z,6.77
2018-12-05T13:05:39.656Z,7.13
2018-12-05T13:08:08.623Z,6.87
2018-12-05T13:10:37.804Z,7.43
2018-12-05T13:13:08.004Z,7.37
2018-12-05T13:15:37.374Z,7.40
2018-12-05T13:18:06.822Z,8.10
2018-12-05T13:20:35.859Z,9.03
2018-12-05T13:23:04.919Z,8.93
2018-12-05T13:25:33.919Z,7.77
2018-12-05T13:28:03.022Z,8.37
2018-12-05T13:30:32.005Z,8.50
2018-12-05T13:33:00.958Z,7.87
2018-12-05T13:35:30.229Z,7.90
2018-12-05T13:37:59.810Z,7.77
2018-12-05T13:40:29.766Z,7.93
2018-12-05T13:42:58.914Z,7.20
2018-12-05T13:45:27.814Z,8.70
2018-12-05T13:47:57.279Z,7.60
2018-12-05T13:50:26.314Z,8.57
2018-12-05T13:52:55.349Z,7.80
2018-12-05T13:55:24.322Z,8.47
2018-12-05T13:57:53.333Z,8.40
2018-12-05T14:00:22.599Z,7.63
2018-12-05T14:02:51.604Z,7.33
2018-12-05T14:05:20.853Z,7.33
2018-12-05T14:07:49.810Z,7.77
2018-12-05T14:10:18.761Z,8.37
2018-12-05T14:12:48.903Z,8.60
2018-12-05T14:15:18.152Z,8.57
2018-12-05T14:17:47.102Z,9.00
2018-12-05T14:20:16.030Z,7.37
2018-12-05T14:22:44.938Z,8.90
2018-12-05T14:25:14.884Z,8.93
2018-12-05T14:27:44.159Z,9.17
2018-12-05T14:30:13.527Z,8.37
2018-12-05T14:32:42.459Z,7.63
2018-12-05T14:35:11.924Z,7.27
2018-12-05T14:37:40.844Z,8.47
2018-12-05T14:40:09.873Z,7.83
2018-12-05T14:42:38.817Z,8.43
2018-12-05T14:45:07.833Z,7.83
2018-12-05T14:47:36.837Z,7.73
2018-12-05T14:50:06.834Z,8.03
2018-12-05T14:52:35.870Z,6.93
2018-12-05T14:55:05.395Z,8.07
2018-12-05T14:57:34.314Z,8.13
2018-12-05T15:00:03.940Z,7.90
2018-12-05T15:02:32.859Z,7.63
2018-12-05T15:05:01.929Z,7.80
2018-12-05T15:07:30.883Z,8.23
2018-12-05T15:09:59.906Z,7.87
2018-12-05T15:12:28.886Z,6.60
2018-12-05T15:15:02.467Z,8.33
2018-12-05T15:17:31.425Z,7.97
2018-12-05T15:20:00.381Z,8.23
2018-12-05T15:22:29.292Z,6.63
2018-12-05T15:24:58.211Z,6.73
2018-12-05T15:27:27.894Z,7.23
2018-12-05T15:29:56.842Z,6.50
2018-12-05T15:32:25.896Z,7.30
2018-12-05T15:34:54.783Z,7.93
2018-12-05T15:37:24.132Z,8.33
2018-12-05T15:39:54.588Z,7.33
2018-12-05T15:42:23.898Z,7.27
2018-12-05T15:44:52.777Z,6.87
2018-12-05T15:47:21.770Z,7.03
2018-12-05T15:49:50.690Z,6.37
2018-12-05T15:52:19.673Z,7.10
2018-12-05T15:54:48.648Z,6.13
2018-12-05T15:57:17.638Z,6.33
2018-12-05T15:59:46.645Z,6.07
2018-12-05T16:02:15.667Z,5.90
2018-12-05T16:04:44.582Z,5.37
2018-12-05T16:07:13.586Z,6.33
2018-12-05T16:09:42.731Z,5.43
2018-12-05T16:12:11.986Z,5.43
2018-12-05T16:14:41.125Z,5.93
2018-12-05T16:17:10.055Z,5.50
2018-12-05T16:19:38.990Z,5.03
2018-12-05T16:22:08.212Z,5.10
2018-12-05T16:24:37.154Z,6.13
2018-12-05T16:27:06.177Z,5.97
2018-12-05T16:29:35.315Z,5.93
2018-12-05T16:32:04.473Z,5.50
2018-12-05T16:34:33.996Z,4.70
2018-12-05T16:37:02.952Z,5.20
2018-12-05T16:39:31.971Z,4.87
2018-12-05T16:42:01.507Z,4.93
2018-12-05T16:44:32.030Z,4.83
2018-12-05T16:47:01.044Z,4.63
2018-12-05T16:49:29.980Z,5.23
2018-12-05T16:51:59.047Z,5.00
2018-12-05T16:54:28.320Z,4.57
2018-12-05T16:56:57.397Z,5.00
2018-12-05T16:59:26.358Z,4.23
2018-12-05T17:01:55.863Z,5.33
2018-12-05T17:04:24.764Z,4.33
2018-12-05T17:06:53.834Z,4.73
2018-12-05T17:09:26.012Z,4.07
2018-12-05T17:11:53.841Z,4.23
2018-12-05T17:14:22.755Z,4.27
2018-12-05T17:16:52.062Z,4.33
2018-12-05T17:19:21.074Z,3.70
2018-12-05T17:21:50.055Z,4.00
2018-12-05T17:24:19.049Z,4.63
2018-12-05T17:26:47.936Z,4.67
2018-12-05T17:29:16.879Z,4.13
2018-12-05T17:31:45.820Z,5.00
2018-12-05T17:34:14.923Z,5.00
2018-12-05T17:36:43.925Z,4.90
2018-12-05T17:39:12.910Z,4.77
2018-12-05T17:41:42.136Z,4.53
2018-12-05T17:44:11.579Z,4.67
2018-12-05T17:46:40.620Z,4.10
2018-12-05T17:49:09.552Z,5.37
2018-12-05T17:51:38.628Z,4.40
2018-12-05T17:54:14.590Z,4.43
2018-12-05T17:56:38.880Z,3.97
2018-12-05T17:59:07.916Z,4.00
2018-12-05T18:01:36.979Z,4.23
2018-12-05T18:04:05.977Z,4.03
2018-12-05T18:06:35.182Z,5.13
2018-12-05T18:09:07.549Z,5.27
2018-12-05T18:11:36.581Z,4.10
2018-12-05T18:14:05.603Z,3.90
2018-12-05T18:16:34.644Z,3.97
2018-12-05T18:19:03.677Z,6.40
2018-12-05T18:21:32.643Z,5.37
2018-12-05T18:24:01.779Z,4.13
2018-12-05T18:26:30.715Z,4.50
2018-12-05T18:28:59.651Z,4.83
2018-12-05T18:31:28.607Z,4.43
2018-12-05T18:33:57.640Z,5.37
2018-12-05T18:36:26.649Z,4.87
2018-12-05T18:38:55.648Z,4.80
2018-12-05T18:41:24.677Z,5.03
2018-12-05T18:43:53.976Z,5.27
2018-12-05T18:46:22.966Z,5.27
2018-12-05T18:48:51.958Z,4.17
2018-12-05T18:51:21.024Z,4.43
2018-12-05T18:53:50.436Z,4.63
2018-12-05T18:56:19.395Z,7.30
2018-12-05T18:58:48.340Z,4.00
2018-12-05T19:01:17.387Z,4.20
2018-12-05T19:03:46.332Z,4.43
2018-12-05T19:06:15.341Z,4.27
2018-12-05T19:08:44.310Z,4.50
2018-12-05T19:11:13.615Z,3.80
2018-12-05T19:13:48.518Z,3.53
2018-12-05T19:16:17.514Z,4.23
2018-12-05T19:18:47.132Z,4.20
2018-12-05T19:21:16.577Z,3.57
2018-12-05T19:23:47.205Z,3.50
2018-12-05T19:26:17.401Z,3.80
2018-12-05T19:28:46.503Z,3.63
2018-12-05T19:31:19.371Z,3.50
2018-12-05T19:33:47.606Z,5.00
2018-12-05T19:36:17.883Z,3.50
2018-12-05T19:38:48.172Z,3.53
2018-12-05T19:41:17.514Z,3.60
2018-12-05T19:43:47.100Z,3.70
2018-12-05T19:46:16.945Z,3.80
2018-12-05T19:48:46.236Z,4.03
2018-12-05T19:51:15.743Z,6.03
2018-12-05T19:53:45.513Z,4.57
2018-12-05T19:56:14.508Z,3.87
2018-12-05T19:58:43.530Z,4.10
2018-12-05T20:01:13.100Z,4.77
2018-12-05T20:03:42.022Z,3.90
2018-12-05T20:06:11.380Z,5.20
2018-12-05T20:08:40.342Z,4.37
2018-12-05T20:11:09.912Z,4.07
2018-12-05T20:13:39.392Z,5.50
2018-12-05T20:16:09.736Z,4.77
2018-12-05T20:18:39.095Z,4.17
2018-12-05T20:21:08.102Z,4.80
2018-12-05T20:23:38.296Z,6.77
2018-12-05T20:28:53.416Z,4.30
2018-12-05T20:31:22.801Z,4.47
2018-12-05T20:33:52.739Z,4.17
2018-12-05T20:36:22.352Z,4.80
2018-12-05T20:38:51.589Z,5.10
2018-12-05T20:41:21.465Z,4.03
2018-12-05T20:43:50.897Z,4.77
2018-12-05T20:46:20.140Z,4.60
2018-12-05T20:48:49.783Z,4.40
2018-12-05T20:51:19.997Z,4.70
2018-12-05T20:53:49.110Z,4.13
2018-12-05T20:56:18.668Z,4.80
2018-12-05T20:58:48.380Z,4.90
2018-12-05T21:01:18.451Z,4.63
2018-12-05T21:03:48.871Z,5.10
2018-12-05T21:06:18.211Z,4.70
2018-12-05T21:08:47.659Z,4.90
2018-12-05T21:11:16.818Z,4.60
2018-12-05T21:13:45.770Z,4.17
2018-12-05T21:16:15.115Z,4.67
2018-12-05T21:18:44.414Z,4.17
2018-12-05T21:21:13.862Z,4.80
2018-12-05T21:23:42.865Z,4.93
2018-12-05T21:26:12.207Z,4.80
2018-12-05T21:28:41.133Z,4.47
2018-12-05T21:31:10.639Z,5.43
2018-12-05T21:33:39.842Z,4.83
2018-12-05T21:36:09.062Z,5.33
2018-12-05T21:38:38.210Z,4.47
2018-12-05T21:41:07.305Z,4.53
2018-12-05T21:43:36.246Z,4.50
2018-12-05T21:46:05.215Z,5.07
2018-12-05T21:48:34.598Z,5.07
2018-12-05T21:51:04.503Z,4.63
2018-12-05T21:53:33.441Z,4.77
2018-12-05T21:56:02.408Z,5.40
2018-12-05T21:58:31.374Z,4.67
2018-12-05T22:01:00.621Z,4.70
2018-12-05T22:03:29.646Z,4.30
2018-12-05T22:05:58.536Z,5.40
2018-12-05T22:08:27.992Z,4.87
2018-12-05T22:10:56.944Z,5.00
2018-12-05T22:13:25.992Z,5.03
2018-12-05T22:15:55.593Z,5.10
2018-12-05T22:18:24.717Z,5.63
2018-12-05T22:20:53.657Z,5.93
2018-12-05T22:23:22.666Z,6.27
2018-12-05T22:25:51.608Z,5.93
2018-12-05T22:28:20.911Z,5.73
2018-12-05T22:30:49.815Z,5.33
2018-12-05T22:33:18.753Z,5.50
2018-12-05T22:35:47.643Z,6.67
2018-12-05T22:38:16.691Z,5.40
2018-12-05T22:40:45.594Z,6.03
2018-12-05T22:43:14.528Z,6.17
2018-12-05T22:45:43.381Z,6.63
2018-12-05T22:48:12.365Z,6.27
2018-12-05T22:50:41.325Z,6.47
2018-12-05T22:53:10.294Z,6.60
2018-12-05T22:55:39.212Z,6.70
2018-12-05T22:58:08.924Z,6.00
2018-12-05T23:00:41.379Z,7.10
2018-12-05T23:03:10.632Z,7.20
2018-12-05T23:05:39.530Z,6.63
2018-12-05T23:08:08.806Z,6.77
2018-12-05T23:10:37.707Z,6.60
2018-12-05T23:13:06.794Z,6.70
2018-12-05T23:15:37.223Z,6.80
2018-12-05T23:18:06.169Z,6.57
2018-12-05T23:20:35.159Z,6.23
2018-12-05T23:23:04.109Z,7.57
2018-12-05T23:25:33.456Z,7.27
2018-12-05T23:28:02.443Z,7.33
2018-12-05T23:30:31.389Z,7.07
2018-12-05T23:33:00.339Z,8.13
2018-12-05T23:35:29.418Z,7.07
2018-12-05T23:37:58.328Z,7.23
2018-12-05T23:40:28.388Z,7.57
2018-12-05T23:42:57.440Z,7.87
2018-12-05T23:45:26.502Z,8.07
2018-12-05T23:47:55.439Z,7.70
2018-12-05T23:50:24.532Z,7.80
2018-12-05T23:52:53.492Z,8.90
2018-12-05T23:55:22.674Z,8.17
2018-12-05T23:57:51.680Z,8.27
